createdAt,value
2018-03-07T00:00:18.793Z,0.34
2018-03-07T00:01:18.747Z,0.33
2018-03-07T00:02:18.742Z,0.34
2018-03-07T00:03:18.733Z,0.34
2018-03-07T00:04:18.768Z,0.39
2018-03-07T00:05:18.721Z,0.28
2018-03-07T00:06:18.759Z,0.33
2018-03-07T00:07:18.713Z,0.31
2018-03-07T00:08:18.710Z,0.30
2018-03-07T00:09:18.704Z,0.38
2018-03-07T00:10:18.694Z,0.41
2018-03-07T00:11:18.737Z,0.33
2018-03-07T00:12:18.682Z,0.33
2018-03-07T00:13:18.677Z,0.30
2018-03-07T00:14:18.710Z,0.42
2018-03-07T00:15:18.672Z,0.38
2018-03-07T00:16:18.708Z,0.36
2018-03-07T00:17:18.656Z,0.34
2018-03-07T00:18:18.650Z,0.38
2018-03-07T00:19:18.681Z,0.42
2018-03-07T00:20:18.641Z,0.30
2018-03-07T00:21:19.141Z,0.34
2018-03-07T00:22:19.636Z,0.34
2018-03-07T00:23:18.624Z,0.31
2018-03-07T00:24:18.619Z,0.27
2018-03-07T00:25:18.609Z,0.27
2018-03-07T00:26:18.607Z,0.36
2018-03-07T00:27:18.638Z,0.33
2018-03-07T00:28:18.592Z,0.36
2018-03-07T00:29:18.598Z,0.34
2018-03-07T00:30:18.579Z,0.30
2018-03-07T00:31:18.575Z,0.36
2018-03-07T00:32:18.608Z,0.33
2018-03-07T00:33:18.567Z,0.34
2018-03-07T00:34:18.562Z,0.31
2018-03-07T00:35:18.554Z,0.33
2018-03-07T00:36:18.548Z,0.28
2018-03-07T00:37:18.591Z,0.41
2018-03-07T00:38:18.537Z,0.39
2018-03-07T00:39:18.570Z,0.43
2018-03-07T00:40:18.527Z,0.41
2018-03-07T00:41:18.520Z,0.38
2018-03-07T00:42:18.557Z,0.41
2018-03-07T00:43:18.511Z,0.41
2018-03-07T00:44:18.503Z,0.39
2018-03-07T00:45:18.496Z,0.36
2018-03-07T00:46:18.492Z,0.41
2018-03-07T00:47:18.530Z,0.41
2018-03-07T00:48:18.483Z,0.41
2018-03-07T00:49:18.634Z,0.39
2018-03-07T00:50:18.471Z,0.38
2018-03-07T00:51:18.571Z,0.34
2018-03-07T00:52:18.462Z,0.38
2018-03-07T00:53:18.461Z,0.42
2018-03-07T00:54:18.491Z,0.36
2018-03-07T00:55:18.456Z,0.38
2018-03-07T00:56:18.452Z,0.38
2018-03-07T00:57:18.437Z,0.42
2018-03-07T00:58:18.462Z,0.39
2018-03-07T00:59:18.434Z,0.48
2018-03-07T01:00:18.416Z,0.31
2018-03-07T01:01:18.421Z,0.38
2018-03-07T01:02:18.405Z,0.46
2018-03-07T01:03:18.444Z,0.43
2018-03-07T01:04:18.399Z,0.31
2018-03-07T01:05:19.391Z,0.33
2018-03-07T01:06:18.625Z,0.25
2018-03-07T01:07:18.568Z,0.31
2018-03-07T01:08:19.072Z,0.38
2018-03-07T01:09:18.515Z,0.31
2018-03-07T01:10:18.620Z,0.36
2018-03-07T01:11:18.383Z,0.34
2018-03-07T01:12:18.761Z,0.25
2018-03-07T01:13:19.020Z,0.28
2018-03-07T01:14:18.362Z,0.33
2018-03-07T01:15:18.574Z,0.30
2018-03-07T01:16:18.408Z,0.36
2018-03-07T01:17:18.332Z,0.42
2018-03-07T01:18:18.367Z,0.36
2018-03-07T01:19:18.553Z,0.42
2018-03-07T01:20:18.529Z,0.38
2018-03-07T01:21:19.207Z,0.42
2018-03-07T01:22:18.313Z,0.39
2018-03-07T01:23:18.530Z,0.38
2018-03-07T01:24:18.331Z,0.48
2018-03-07T01:25:18.286Z,0.48
2018-03-07T01:26:19.699Z,0.49
2018-03-07T01:27:18.399Z,0.48
2018-03-07T01:28:18.315Z,0.49
2018-03-07T01:29:18.432Z,0.34
2018-03-07T01:30:18.552Z,0.41
2018-03-07T01:31:18.325Z,0.43
2018-03-07T01:32:18.241Z,0.41
2018-03-07T01:33:18.280Z,0.49
2018-03-07T01:34:18.250Z,0.52
2018-03-07T01:35:18.229Z,0.53
2018-03-07T01:36:18.385Z,0.52
2018-03-07T01:37:18.219Z,0.52
2018-03-07T01:38:18.443Z,0.45
2018-03-07T01:39:18.552Z,0.45
2018-03-07T01:40:18.703Z,0.51
2018-03-07T01:41:19.694Z,0.45
2018-03-07T01:42:18.431Z,0.53
2018-03-07T01:43:18.196Z,0.42
2018-03-07T01:44:18.302Z,0.41
2018-03-07T01:45:18.282Z,0.33
2018-03-07T01:46:18.261Z,0.38
2018-03-07T01:47:18.360Z,0.31
2018-03-07T01:48:18.164Z,0.38
2018-03-07T01:49:18.201Z,0.45
2018-03-07T01:50:18.145Z,0.34
2018-03-07T01:51:18.142Z,0.31
2018-03-07T01:52:18.134Z,0.42
2018-03-07T01:53:18.169Z,0.39
2018-03-07T01:54:18.162Z,0.38
2018-03-07T01:55:18.117Z,0.41
2018-03-07T01:56:18.108Z,0.42
2018-03-07T01:57:18.111Z,0.31
2018-03-07T01:58:18.131Z,0.41
2018-03-07T01:59:18.076Z,0.33
2018-03-07T02:00:18.119Z,0.31
2018-03-07T02:01:18.066Z,0.31
2018-03-07T02:02:18.059Z,0.27
2018-03-07T02:03:18.059Z,0.39
2018-03-07T02:04:18.096Z,0.25
2018-03-07T02:05:18.054Z,0.25
2018-03-07T02:06:18.062Z,0.24
2018-03-07T02:07:18.052Z,0.21
2018-03-07T02:08:18.040Z,0.18
2018-03-07T02:09:18.076Z,0.15
2018-03-07T02:10:18.021Z,0.25
2018-03-07T02:11:18.029Z,0.20
2018-03-07T02:12:18.020Z,0.13
2018-03-07T02:13:18.998Z,0.07
2018-03-07T02:14:18.003Z,0.13
2018-03-07T02:15:18.041Z,0.10
2018-03-07T02:16:17.993Z,0.12
2018-03-07T02:17:18.157Z,0.07
2018-03-07T02:18:17.986Z,0.12
2018-03-07T02:19:17.990Z,0.09
2018-03-07T02:20:18.023Z,0.12
2018-03-07T02:21:17.969Z,0.09
2018-03-07T02:22:17.998Z,0.06
2018-03-07T02:23:17.952Z,0.07
2018-03-07T02:24:17.947Z,0.07
2018-03-07T02:25:17.961Z,0.05
2018-03-07T02:26:17.935Z,0.05
2018-03-07T02:27:17.981Z,0.12
2018-03-07T02:28:17.923Z,0.10
2018-03-07T02:29:17.921Z,-0.04
2018-03-07T02:30:17.914Z,0.02
2018-03-07T02:31:17.923Z,0.00
2018-03-07T02:32:17.955Z,-0.06
2018-03-07T02:33:17.916Z,-0.06
2018-03-07T02:34:17.900Z,-0.05
2018-03-07T02:35:17.892Z,-0.18
2018-03-07T02:36:17.881Z,-0.05
2018-03-07T02:37:17.923Z,-0.11
2018-03-07T02:38:17.887Z,-0.16
2018-03-07T02:39:17.874Z,-0.15
2018-03-07T02:40:17.913Z,-0.23
2018-03-07T02:41:17.852Z,-0.19
2018-03-07T02:42:17.889Z,-0.16
2018-03-07T02:43:18.649Z,-0.18
2018-03-07T02:44:17.838Z,-0.19
2018-03-07T02:45:17.882Z,-0.18
2018-03-07T02:46:17.813Z,-0.16
2018-03-07T02:47:17.884Z,-0.18
2018-03-07T02:48:17.813Z,-0.05
2018-03-07T02:49:17.815Z,-0.09
2018-03-07T02:50:17.802Z,-0.23
2018-03-07T02:51:17.848Z,-0.09
2018-03-07T02:52:17.833Z,-0.16
2018-03-07T02:53:17.784Z,-0.15
2018-03-07T02:54:17.781Z,-0.22
2018-03-07T02:55:17.777Z,-0.15
2018-03-07T02:56:17.808Z,-0.23
2018-03-07T02:57:17.799Z,-0.23
2018-03-07T02:58:17.758Z,-0.15
2018-03-07T02:59:17.769Z,-0.16
2018-03-07T03:00:17.754Z,-0.18
2018-03-07T03:01:17.733Z,-0.33
2018-03-07T03:02:17.780Z,-0.37
2018-03-07T03:03:17.724Z,-0.37
2018-03-07T03:04:17.740Z,-0.39
2018-03-07T03:05:17.708Z,-0.45
2018-03-07T03:06:17.699Z,-0.50
2018-03-07T03:07:17.772Z,-0.52
2018-03-07T03:08:17.718Z,-0.37
2018-03-07T03:09:17.687Z,-0.37
2018-03-07T03:10:17.680Z,-0.37
2018-03-07T03:11:17.783Z,-0.41
2018-03-07T03:12:17.671Z,-0.44
2018-03-07T03:13:17.696Z,-0.45
2018-03-07T03:14:17.662Z,-0.37
2018-03-07T03:15:17.635Z,-0.42
2018-03-07T03:16:17.646Z,-0.44
2018-03-07T03:17:17.647Z,-0.39
2018-03-07T03:18:18.208Z,-0.39
2018-03-07T03:19:17.631Z,-0.50
2018-03-07T03:20:17.737Z,-0.50
2018-03-07T03:21:17.615Z,-0.51
2018-03-07T03:22:17.600Z,-0.51
2018-03-07T03:23:17.645Z,-0.44
2018-03-07T03:24:17.597Z,-0.54
2018-03-07T03:25:17.591Z,-0.48
2018-03-07T03:26:17.590Z,-0.48
2018-03-07T03:27:17.571Z,-0.50
2018-03-07T03:28:17.623Z,-0.50
2018-03-07T03:29:17.564Z,-0.52
2018-03-07T03:30:17.564Z,-0.52
2018-03-07T03:31:17.548Z,-0.55
2018-03-07T03:32:17.547Z,-0.60
2018-03-07T03:33:17.579Z,-0.62
2018-03-07T03:34:17.538Z,-0.65
2018-03-07T03:35:17.526Z,-0.60
2018-03-07T03:36:17.518Z,-0.68
2018-03-07T03:37:17.513Z,-0.62
2018-03-07T03:38:17.555Z,-0.57
2018-03-07T03:39:17.501Z,-0.55
2018-03-07T03:40:17.491Z,-0.60
2018-03-07T03:41:17.564Z,-0.60
2018-03-07T03:42:17.484Z,-0.50
2018-03-07T03:43:17.481Z,-0.57
2018-03-07T03:44:17.470Z,-0.59
2018-03-07T03:45:17.492Z,-0.69
2018-03-07T03:46:17.455Z,-0.68
2018-03-07T03:47:17.486Z,-0.70
2018-03-07T03:48:17.440Z,-0.69
2018-03-07T03:49:17.492Z,-0.77
2018-03-07T03:50:17.438Z,-0.73
2018-03-07T03:51:17.469Z,-0.81
2018-03-07T03:52:18.291Z,-0.80
2018-03-07T03:53:17.420Z,-0.83
2018-03-07T03:54:17.451Z,-0.83
2018-03-07T03:55:17.390Z,-0.83
2018-03-07T03:56:17.435Z,-0.83
2018-03-07T03:57:17.378Z,-0.81
2018-03-07T03:58:17.368Z,-0.86
2018-03-07T03:59:17.382Z,-0.84
2018-03-07T04:00:17.414Z,-0.86
2018-03-07T04:01:17.411Z,-0.77
2018-03-07T04:02:17.349Z,-0.81
2018-03-07T04:03:17.346Z,-0.83
2018-03-07T04:04:17.333Z,-0.83
2018-03-07T04:05:17.377Z,-0.83
2018-03-07T04:06:17.317Z,-0.80
2018-03-07T04:07:17.328Z,-0.84
2018-03-07T04:08:17.302Z,-0.84
2018-03-07T04:09:17.299Z,-0.91
2018-03-07T04:10:17.350Z,-0.86
2018-03-07T04:11:17.958Z,-1.02
2018-03-07T04:12:17.279Z,-1.00
2018-03-07T04:13:17.270Z,-0.99
2018-03-07T04:14:17.266Z,-0.89
2018-03-07T04:15:17.258Z,-0.68
2018-03-07T04:16:17.293Z,-0.87
2018-03-07T04:17:17.287Z,-0.94
2018-03-07T04:18:17.236Z,-0.95
2018-03-07T04:19:17.229Z,-1.06
2018-03-07T04:20:17.218Z,-1.17
2018-03-07T04:21:17.251Z,-1.18
2018-03-07T04:22:17.204Z,-1.21
2018-03-07T04:23:17.200Z,-1.17
2018-03-07T04:24:17.194Z,-1.06
2018-03-07T04:25:17.192Z,-0.99
2018-03-07T04:26:17.224Z,-0.86
2018-03-07T04:27:17.178Z,-0.86
2018-03-07T04:28:17.173Z,-0.63
2018-03-07T04:29:17.171Z,-0.69
2018-03-07T04:30:17.164Z,-0.69
2018-03-07T04:31:17.192Z,-0.77
2018-03-07T04:32:17.140Z,-0.84
2018-03-07T04:33:17.135Z,-0.84
2018-03-07T04:34:17.134Z,-0.89
2018-03-07T04:35:17.122Z,-1.06
2018-03-07T04:36:17.179Z,-1.12
2018-03-07T04:37:17.115Z,-1.13
2018-03-07T04:38:17.098Z,-1.15
2018-03-07T04:39:17.096Z,-1.12
2018-03-07T04:40:17.087Z,-1.05
2018-03-07T04:41:17.121Z,-1.05
2018-03-07T04:42:17.078Z,-0.99
2018-03-07T04:43:17.072Z,-0.94
2018-03-07T04:44:17.067Z,-0.86
2018-03-07T04:45:17.080Z,-0.84
2018-03-07T04:46:17.090Z,-0.80
2018-03-07T04:47:17.048Z,-0.80
2018-03-07T04:48:17.032Z,-0.80
2018-03-07T04:49:17.034Z,-0.91
2018-03-07T04:50:17.021Z,-0.86
2018-03-07T04:51:17.061Z,-1.06
2018-03-07T04:52:17.010Z,-1.15
2018-03-07T04:53:17.000Z,-1.15
2018-03-07T04:54:16.991Z,-1.18
2018-03-07T04:55:16.986Z,-1.13
2018-03-07T04:56:17.040Z,-1.17
2018-03-07T04:57:16.975Z,-1.05
2018-03-07T04:58:16.969Z,-1.13
2018-03-07T04:59:16.962Z,-1.17
2018-03-07T05:00:16.960Z,-1.12
2018-03-07T05:01:16.988Z,-1.00
2018-03-07T05:02:16.944Z,-0.95
2018-03-07T05:03:16.934Z,-1.05
2018-03-07T05:04:16.932Z,-0.91
2018-03-07T05:05:16.928Z,-0.94
2018-03-07T05:06:16.976Z,-0.99
2018-03-07T05:07:16.914Z,-0.86
2018-03-07T05:08:16.903Z,-0.83
2018-03-07T05:09:16.894Z,-0.73
2018-03-07T05:10:16.894Z,-0.69
2018-03-07T05:11:16.946Z,-0.70
2018-03-07T05:12:16.913Z,-0.75
2018-03-07T05:13:16.878Z,-0.87
2018-03-07T05:14:16.866Z,-0.83
2018-03-07T05:15:16.868Z,-0.72
2018-03-07T05:16:16.856Z,-0.70
2018-03-07T05:17:16.891Z,-0.75
2018-03-07T05:18:16.850Z,-0.89
2018-03-07T05:19:16.840Z,-1.00
2018-03-07T05:20:16.844Z,-1.00
2018-03-07T05:21:16.846Z,-1.00
2018-03-07T05:22:16.878Z,-1.10
2018-03-07T05:23:16.809Z,-0.89
2018-03-07T05:24:16.820Z,-0.70
2018-03-07T05:25:16.854Z,-0.65
2018-03-07T05:26:16.793Z,-0.70
2018-03-07T05:27:16.802Z,-0.63
2018-03-07T05:28:16.824Z,-0.51
2018-03-07T05:29:16.784Z,-0.45
2018-03-07T05:30:16.771Z,-0.50
2018-03-07T05:31:16.764Z,-0.57
2018-03-07T05:32:17.117Z,-0.63
2018-03-07T05:33:16.790Z,-0.55
2018-03-07T05:34:16.756Z,-0.41
2018-03-07T05:35:16.752Z,-0.34
2018-03-07T05:36:16.736Z,-0.24
2018-03-07T05:37:16.731Z,-0.39
2018-03-07T05:38:16.760Z,-0.26
2018-03-07T05:39:16.713Z,-0.31
2018-03-07T05:40:16.729Z,-0.44
2018-03-07T05:41:16.694Z,-0.54
2018-03-07T05:42:16.728Z,-0.69
2018-03-07T05:43:16.678Z,-0.73
2018-03-07T05:44:16.672Z,-0.72
2018-03-07T05:45:16.701Z,-0.78
2018-03-07T05:46:16.655Z,-0.77
2018-03-07T05:47:16.699Z,-0.89
2018-03-07T05:48:16.651Z,-0.86
2018-03-07T05:49:16.641Z,-0.92
2018-03-07T05:50:16.671Z,-0.87
2018-03-07T05:51:16.631Z,-0.89
2018-03-07T05:52:16.621Z,-0.86
2018-03-07T05:53:16.648Z,-0.83
2018-03-07T05:54:16.604Z,-0.72
2018-03-07T05:55:16.602Z,-0.66
2018-03-07T05:56:16.610Z,-0.63
2018-03-07T05:57:16.590Z,-0.55
2018-03-07T05:58:16.638Z,-0.51
2018-03-07T05:59:16.612Z,-0.39
2018-03-07T06:00:16.568Z,-0.33
2018-03-07T06:01:16.566Z,-0.24
2018-03-07T06:02:16.562Z,-0.26
2018-03-07T06:03:16.590Z,-0.19
2018-03-07T06:04:16.545Z,-0.19
2018-03-07T06:05:16.543Z,-0.11
2018-03-07T06:06:16.539Z,-0.01
2018-03-07T06:07:16.523Z,-0.09
2018-03-07T06:08:16.561Z,-0.05
2018-03-07T06:09:16.517Z,-0.18
2018-03-07T06:10:16.509Z,-0.24
2018-03-07T06:11:16.501Z,-0.26
2018-03-07T06:12:16.494Z,-0.31
2018-03-07T06:13:16.552Z,-0.45
2018-03-07T06:14:16.523Z,-0.50
2018-03-07T06:15:16.474Z,-0.55
2018-03-07T06:16:16.481Z,-0.60
2018-03-07T06:17:16.460Z,-0.45
2018-03-07T06:18:16.459Z,-0.33
2018-03-07T06:19:16.498Z,-0.27
2018-03-07T06:20:16.442Z,-0.33
2018-03-07T06:21:16.434Z,-0.22
2018-03-07T06:22:16.430Z,-0.30
2018-03-07T06:23:16.464Z,-0.37
2018-03-07T06:24:16.469Z,-0.48
2018-03-07T06:25:16.413Z,-0.50
2018-03-07T06:26:16.411Z,-0.34
2018-03-07T06:27:16.404Z,-0.23
2018-03-07T06:28:16.441Z,-0.08
2018-03-07T06:29:16.442Z,0.09
2018-03-07T06:30:16.382Z,0.10
2018-03-07T06:31:16.483Z,0.07
2018-03-07T06:32:16.373Z,0.15
2018-03-07T06:33:16.407Z,0.28
2018-03-07T06:34:16.400Z,0.33
2018-03-07T06:35:16.357Z,0.27
2018-03-07T06:36:16.353Z,0.30
2018-03-07T06:37:16.346Z,0.36
2018-03-07T06:38:16.337Z,0.33
2018-03-07T06:39:16.372Z,0.34
2018-03-07T06:40:16.327Z,0.24
2018-03-07T06:41:16.327Z,0.28
2018-03-07T06:42:16.329Z,0.21
2018-03-07T06:43:16.359Z,0.09
2018-03-07T06:44:16.303Z,0.15
2018-03-07T06:45:16.299Z,0.09
2018-03-07T06:46:16.294Z,0.33
2018-03-07T06:47:16.297Z,0.53
2018-03-07T06:48:16.341Z,0.58
2018-03-07T06:49:16.281Z,0.62
2018-03-07T06:50:16.313Z,0.75
2018-03-07T06:51:16.268Z,0.89
2018-03-07T06:52:16.268Z,1.06
2018-03-07T06:53:16.298Z,1.25
2018-03-07T06:54:16.298Z,1.32
2018-03-07T06:55:16.249Z,1.36
2018-03-07T06:56:16.244Z,1.34
2018-03-07T06:57:16.238Z,1.37
2018-03-07T06:58:16.233Z,1.50
2018-03-07T06:59:16.277Z,1.54
2018-03-07T07:00:16.225Z,1.65
2018-03-07T07:01:16.220Z,1.62
2018-03-07T07:02:16.211Z,1.71
2018-03-07T07:03:16.257Z,1.73
2018-03-07T07:04:16.201Z,1.51
2018-03-07T07:05:16.199Z,1.51
2018-03-07T07:06:16.235Z,1.61
2018-03-07T07:07:16.188Z,1.72
2018-03-07T07:08:16.233Z,1.90
2018-03-07T07:09:16.182Z,1.98
2018-03-07T07:10:16.173Z,2.10
2018-03-07T07:11:16.169Z,2.17
2018-03-07T07:12:16.162Z,2.28
2018-03-07T07:13:16.210Z,2.40
2018-03-07T07:14:16.157Z,2.45
2018-03-07T07:15:16.155Z,2.45
2018-03-07T07:16:16.151Z,2.48
2018-03-07T07:17:16.149Z,2.55
2018-03-07T07:18:16.188Z,2.52
2018-03-07T07:19:16.142Z,2.51
2018-03-07T07:20:16.780Z,2.33
2018-03-07T07:21:16.126Z,1.73
2018-03-07T07:22:16.128Z,1.64
2018-03-07T07:23:16.158Z,1.68
2018-03-07T07:24:16.166Z,1.72
2018-03-07T07:25:16.115Z,1.98
2018-03-07T07:26:16.113Z,2.30
2018-03-07T07:27:16.109Z,2.34
2018-03-07T07:28:16.142Z,2.48
2018-03-07T07:29:16.125Z,2.67
2018-03-07T07:30:16.135Z,2.81
2018-03-07T07:31:16.093Z,2.95
2018-03-07T07:32:16.091Z,3.15
2018-03-07T07:33:16.086Z,3.28
2018-03-07T07:34:16.082Z,3.40
2018-03-07T07:35:16.126Z,3.44
2018-03-07T07:36:16.079Z,3.61
2018-03-07T07:37:16.076Z,3.61
2018-03-07T07:38:16.700Z,3.83
2018-03-07T07:39:16.636Z,3.97
2018-03-07T07:40:16.176Z,4.04
2018-03-07T07:41:16.069Z,4.15
2018-03-07T07:42:16.056Z,4.18
2018-03-07T07:43:16.108Z,4.24
2018-03-07T07:44:16.051Z,4.26
2018-03-07T07:45:16.048Z,4.28
2018-03-07T07:46:16.084Z,4.32
2018-03-07T07:47:16.058Z,4.24
2018-03-07T07:48:16.046Z,4.26
2018-03-07T07:49:16.044Z,4.22
2018-03-07T07:50:16.039Z,4.26
2018-03-07T07:51:16.072Z,4.24
2018-03-07T07:52:16.031Z,4.16
2018-03-07T07:53:16.028Z,4.15
2018-03-07T07:55:16.038Z,4.08
2018-03-07T07:56:16.081Z,4.15
2018-03-07T07:57:16.022Z,4.22
2018-03-07T07:58:16.065Z,4.26
2018-03-07T07:59:16.027Z,4.29
2018-03-07T08:00:16.055Z,4.29
2018-03-07T08:01:16.056Z,4.26
2018-03-07T08:02:16.017Z,4.33
2018-03-07T08:03:16.014Z,4.36
2018-03-07T08:04:16.019Z,4.43
2018-03-07T08:05:16.009Z,4.36
2018-03-07T08:06:16.055Z,4.51
2018-03-07T08:07:16.046Z,4.51
2018-03-07T08:08:16.004Z,4.42
2018-03-07T08:09:16.607Z,4.43
2018-03-07T08:10:15.999Z,4.52
2018-03-07T08:11:16.003Z,4.50
2018-03-07T08:12:16.057Z,4.42
2018-03-07T08:13:16.889Z,4.54
2018-03-07T08:14:15.999Z,4.65
2018-03-07T08:15:16.000Z,4.65
2018-03-07T08:16:15.992Z,4.69
2018-03-07T08:17:16.036Z,4.83
2018-03-07T08:18:16.040Z,4.99
2018-03-07T08:19:15.993Z,4.92
2018-03-07T08:20:16.077Z,5.27
2018-03-07T08:21:15.992Z,5.55
2018-03-07T08:22:16.038Z,5.75
2018-03-07T08:23:15.986Z,6.14
2018-03-07T08:24:15.989Z,6.58
2018-03-07T08:25:15.984Z,6.98
2018-03-07T08:26:15.987Z,7.37
2018-03-07T08:27:16.029Z,7.63
2018-03-07T08:28:16.045Z,7.96
2018-03-07T08:29:15.993Z,8.39
2018-03-07T08:30:15.991Z,8.21
2018-03-07T08:31:16.001Z,8.57
2018-03-07T08:32:16.031Z,8.51
2018-03-07T08:33:16.040Z,8.39
2018-03-07T08:34:15.996Z,8.28
2018-03-07T08:35:16.910Z,8.30
2018-03-07T08:36:16.005Z,7.90
2018-03-07T08:37:15.998Z,7.49
2018-03-07T08:38:16.040Z,7.16
2018-03-07T08:39:16.005Z,6.81
2018-03-07T08:40:16.156Z,6.72
2018-03-07T08:41:16.005Z,6.71
2018-03-07T08:42:16.008Z,6.68
2018-03-07T08:43:16.050Z,6.95
2018-03-07T08:44:16.011Z,6.83
2018-03-07T08:45:16.015Z,6.79
2018-03-07T08:46:16.017Z,6.63
2018-03-07T08:47:16.015Z,6.50
2018-03-07T08:48:16.023Z,6.14
2018-03-07T08:49:16.059Z,5.91
2018-03-07T08:50:16.021Z,5.91
2018-03-07T08:51:16.031Z,5.83
2018-03-07T08:52:16.029Z,5.85
2018-03-07T08:53:16.026Z,6.07
2018-03-07T08:54:16.067Z,6.46
2018-03-07T08:55:16.031Z,6.71
2018-03-07T08:56:16.035Z,6.95
2018-03-07T08:57:16.034Z,6.63
2018-03-07T08:58:16.033Z,6.54
2018-03-07T08:59:16.072Z,6.21
2018-03-07T09:00:16.524Z,6.00
2018-03-07T09:01:16.035Z,5.64
2018-03-07T09:02:16.037Z,5.59
2018-03-07T09:03:16.042Z,5.68
2018-03-07T09:04:16.078Z,5.59
2018-03-07T09:05:16.040Z,5.63
2018-03-07T09:06:16.043Z,5.57
2018-03-07T09:07:16.044Z,5.41
2018-03-07T09:08:16.046Z,5.41
2018-03-07T09:09:16.082Z,5.55
2018-03-07T09:10:16.086Z,5.59
2018-03-07T09:11:16.044Z,5.70
2018-03-07T09:12:16.044Z,5.71
2018-03-07T09:13:16.044Z,5.89
2018-03-07T09:14:16.094Z,5.78
2018-03-07T09:15:16.047Z,5.88
2018-03-07T09:16:16.043Z,5.71
2018-03-07T09:17:16.042Z,5.67
2018-03-07T09:18:16.046Z,5.64
2018-03-07T09:19:16.085Z,5.46
2018-03-07T09:20:16.094Z,5.50
2018-03-07T09:21:16.041Z,5.41
2018-03-07T09:22:16.047Z,5.35
2018-03-07T09:23:16.095Z,5.37
2018-03-07T09:24:16.046Z,5.30
2018-03-07T09:25:16.049Z,5.12
2018-03-07T09:26:16.042Z,4.50
2018-03-07T09:27:16.045Z,4.29
2018-03-07T09:28:16.084Z,4.51
2018-03-07T09:29:16.440Z,4.59
2018-03-07T09:30:16.085Z,4.70
2018-03-07T09:31:16.047Z,4.91
2018-03-07T09:32:16.046Z,4.79
2018-03-07T09:33:16.876Z,4.83
2018-03-07T09:34:16.044Z,4.89
2018-03-07T09:35:16.091Z,4.99
2018-03-07T09:36:16.048Z,4.92
2018-03-07T09:37:16.043Z,4.80
2018-03-07T09:38:16.090Z,4.64
2018-03-07T09:39:16.043Z,4.59
2018-03-07T09:40:16.091Z,4.59
2018-03-07T09:41:16.041Z,4.76
2018-03-07T09:42:16.078Z,4.94
2018-03-07T09:43:16.040Z,4.99
2018-03-07T09:44:16.039Z,5.22
2018-03-07T09:45:16.075Z,5.38
2018-03-07T09:46:16.041Z,5.60
2018-03-07T09:47:16.038Z,5.63
2018-03-07T09:48:16.036Z,5.78
2018-03-07T09:49:16.035Z,5.91
2018-03-07T09:50:16.083Z,5.96
2018-03-07T09:51:16.030Z,5.95
2018-03-07T09:52:16.071Z,5.89
2018-03-07T09:53:16.030Z,5.81
2018-03-07T09:54:16.029Z,5.63
2018-03-07T09:55:16.037Z,5.45
2018-03-07T09:56:16.127Z,5.48
2018-03-07T09:57:16.023Z,5.23
2018-03-07T09:58:16.024Z,5.25
2018-03-07T09:59:16.067Z,5.13
2018-03-07T10:00:16.020Z,4.94
2018-03-07T10:01:16.058Z,4.86
2018-03-07T10:02:16.017Z,4.80
2018-03-07T10:03:16.017Z,4.80
2018-03-07T10:04:16.017Z,4.77
2018-03-07T10:05:16.062Z,4.67
2018-03-07T10:06:16.011Z,4.76
2018-03-07T10:07:16.008Z,4.72
2018-03-07T10:08:16.048Z,4.67
2018-03-07T10:09:16.004Z,4.75
2018-03-07T10:10:16.003Z,4.79
2018-03-07T10:11:16.039Z,4.76
2018-03-07T10:12:15.999Z,4.92
2018-03-07T10:13:15.996Z,4.86
2018-03-07T10:14:15.995Z,5.07
2018-03-07T10:15:15.994Z,5.07
2018-03-07T10:16:16.033Z,5.16
2018-03-07T10:17:15.989Z,5.13
2018-03-07T10:18:15.987Z,5.19
2018-03-07T10:19:15.987Z,5.28
2018-03-07T10:20:15.987Z,5.35
2018-03-07T10:21:16.032Z,5.49
2018-03-07T10:22:15.978Z,5.43
2018-03-07T10:23:16.014Z,5.52
2018-03-07T10:24:15.972Z,5.56
2018-03-07T10:25:15.971Z,5.56
2018-03-07T10:26:16.191Z,5.49
2018-03-07T10:27:16.006Z,5.46
2018-03-07T10:28:15.964Z,5.53
2018-03-07T10:29:15.963Z,5.45
2018-03-07T10:30:15.964Z,5.35
2018-03-07T10:31:16.010Z,5.28
2018-03-07T10:32:15.958Z,5.13
2018-03-07T10:33:15.992Z,5.02
2018-03-07T10:34:15.974Z,5.09
2018-03-07T10:35:15.953Z,4.92
2018-03-07T10:36:15.949Z,5.05
2018-03-07T10:37:15.998Z,4.99
2018-03-07T10:38:15.946Z,4.99
2018-03-07T10:39:15.942Z,5.13
2018-03-07T10:40:15.939Z,5.19
2018-03-07T10:41:15.939Z,5.12
2018-03-07T10:42:15.984Z,5.13
2018-03-07T10:43:15.932Z,5.13
2018-03-07T10:44:15.935Z,5.07
2018-03-07T10:45:15.927Z,5.02
2018-03-07T10:46:15.924Z,4.96
2018-03-07T10:47:15.962Z,4.95
2018-03-07T10:48:15.920Z,4.98
2018-03-07T10:49:15.920Z,5.04
2018-03-07T10:50:15.918Z,5.12
2018-03-07T10:51:15.915Z,5.17
2018-03-07T10:52:16.001Z,5.20
2018-03-07T10:53:15.911Z,5.25
2018-03-07T10:54:15.913Z,5.14
2018-03-07T10:55:16.457Z,5.25
2018-03-07T10:56:15.905Z,5.27
2018-03-07T10:57:15.954Z,5.19
2018-03-07T10:58:15.899Z,5.34
2018-03-07T10:59:15.896Z,5.43
2018-03-07T11:00:15.902Z,5.63
2018-03-07T11:01:15.891Z,5.63
2018-03-07T11:02:15.942Z,5.75
2018-03-07T11:03:15.889Z,5.91
2018-03-07T11:04:15.885Z,6.71
2018-03-07T11:05:15.884Z,7.78
2018-03-07T11:06:15.886Z,8.72
2018-03-07T11:07:15.926Z,8.88
2018-03-07T11:08:15.933Z,9.61
2018-03-07T11:09:15.885Z,9.60
2018-03-07T11:10:15.895Z,10.25
2018-03-07T11:11:15.890Z,10.32
2018-03-07T11:12:15.891Z,10.25
2018-03-07T11:13:15.937Z,10.15
2018-03-07T11:14:15.902Z,10.28
2018-03-07T11:15:15.908Z,10.06
2018-03-07T11:16:15.911Z,9.56
2018-03-07T11:17:15.919Z,8.55
2018-03-07T11:18:15.961Z,8.21
2018-03-07T11:19:15.927Z,7.92
2018-03-07T11:20:15.935Z,7.60
2018-03-07T11:21:15.945Z,7.40
2018-03-07T11:22:15.943Z,7.52
2018-03-07T11:23:15.987Z,7.66
2018-03-07T11:24:15.952Z,7.47
2018-03-07T11:25:16.917Z,7.32
2018-03-07T11:26:15.960Z,7.08
2018-03-07T11:27:15.967Z,7.05
2018-03-07T11:28:16.019Z,7.17
2018-03-07T11:29:15.974Z,7.52
2018-03-07T11:30:15.975Z,7.40
2018-03-07T11:31:15.975Z,7.24
2018-03-07T11:32:15.980Z,7.20
2018-03-07T11:33:16.034Z,7.32
2018-03-07T11:34:15.985Z,7.62
2018-03-07T11:35:15.988Z,7.85
2018-03-07T11:36:15.992Z,8.00
2018-03-07T11:37:15.991Z,8.39
2018-03-07T11:38:16.034Z,8.88
2018-03-07T11:39:16.000Z,8.69
2018-03-07T11:40:16.043Z,8.54
2018-03-07T11:41:16.004Z,8.57
2018-03-07T11:42:16.007Z,8.63
2018-03-07T11:43:16.014Z,8.91
2018-03-07T11:44:16.013Z,8.90
2018-03-07T11:45:16.056Z,8.55
2018-03-07T11:46:16.022Z,8.42
2018-03-07T11:47:16.025Z,8.32
2018-03-07T11:48:16.029Z,8.20
2018-03-07T11:49:16.034Z,8.11
2018-03-07T11:50:16.073Z,8.04
2018-03-07T11:51:16.907Z,8.21
2018-03-07T11:52:16.038Z,8.30
2018-03-07T11:53:16.041Z,8.50
2018-03-07T11:54:16.046Z,8.73
2018-03-07T11:55:16.097Z,9.13
2018-03-07T11:56:16.052Z,10.01
2018-03-07T11:57:16.055Z,11.31
2018-03-07T11:58:16.111Z,12.57
2018-03-07T11:59:16.063Z,12.71
2018-03-07T12:00:16.065Z,12.92
2018-03-07T12:01:16.070Z,13.36
2018-03-07T12:02:16.116Z,13.14
2018-03-07T12:03:16.082Z,13.09
2018-03-07T12:04:16.091Z,12.88
2018-03-07T12:05:16.142Z,12.46
2018-03-07T12:06:16.105Z,12.66
2018-03-07T12:07:16.115Z,12.26
2018-03-07T12:08:16.126Z,11.77
2018-03-07T12:09:16.134Z,11.35
2018-03-07T12:10:16.183Z,11.29
2018-03-07T12:11:16.155Z,11.21
2018-03-07T12:12:16.162Z,11.03
2018-03-07T12:13:16.171Z,10.92
2018-03-07T12:14:16.187Z,11.11
2018-03-07T12:15:16.232Z,11.38
2018-03-07T12:16:16.203Z,11.56
2018-03-07T12:17:16.212Z,11.39
2018-03-07T12:18:16.223Z,11.62
2018-03-07T12:19:16.241Z,12.09
2018-03-07T12:20:16.293Z,12.39
2018-03-07T12:21:16.670Z,12.45
2018-03-07T12:22:16.307Z,12.44
2018-03-07T12:23:16.278Z,12.34
2018-03-07T12:24:16.288Z,12.41
2018-03-07T12:25:16.299Z,12.39
2018-03-07T12:26:16.362Z,12.74
2018-03-07T12:27:16.361Z,12.71
2018-03-07T12:28:16.334Z,12.78
2018-03-07T12:29:16.343Z,12.78
2018-03-07T12:30:16.356Z,13.14
2018-03-07T12:31:16.406Z,13.52
2018-03-07T12:32:16.384Z,13.95
2018-03-07T12:33:16.390Z,14.21
2018-03-07T12:34:16.421Z,14.53
2018-03-07T12:35:16.468Z,14.83
2018-03-07T12:36:16.432Z,14.90
2018-03-07T12:37:16.492Z,14.64
2018-03-07T12:38:16.456Z,14.01
2018-03-07T12:39:16.465Z,13.46
2018-03-07T12:40:16.584Z,12.48
2018-03-07T12:41:16.490Z,11.47
2018-03-07T12:42:16.541Z,10.91
2018-03-07T12:43:16.516Z,10.68
2018-03-07T12:44:16.524Z,10.10
2018-03-07T12:45:16.586Z,9.63
2018-03-07T12:46:16.544Z,9.66
2018-03-07T12:47:16.590Z,9.60
2018-03-07T12:48:16.563Z,10.59
2018-03-07T12:49:16.570Z,11.72
2018-03-07T12:50:16.578Z,12.44
2018-03-07T12:51:16.629Z,12.63
2018-03-07T12:52:16.598Z,12.89
2018-03-07T12:53:16.633Z,12.39
2018-03-07T12:54:16.612Z,11.94
2018-03-07T12:55:16.621Z,11.89
2018-03-07T12:56:16.670Z,11.24
2018-03-07T12:57:16.638Z,10.71
2018-03-07T12:58:16.651Z,10.18
2018-03-07T12:59:16.653Z,10.46
2018-03-07T13:00:16.711Z,11.25
2018-03-07T13:01:16.667Z,11.21
2018-03-07T13:02:16.715Z,11.75
2018-03-07T13:03:16.683Z,12.01
2018-03-07T13:04:16.694Z,12.19
2018-03-07T13:05:16.704Z,11.89
2018-03-07T13:06:16.758Z,11.70
2018-03-07T13:07:16.762Z,10.76
2018-03-07T13:08:16.725Z,10.21
2018-03-07T13:09:16.742Z,9.81